sensor_id;sensor_type;location;lat;lon;timestamp;pressure;altitude;pressure_sealevel;temperature;humidity
6038;BME280;3047;42.600;23.470;2022-07-05T00:00:51;93255.63;;;22.79;44.50
6038;BME280;3047;42.600;23.470;2022-07-05T00:03:18;93274.75;;;22.87;44.77
6038;BME280;3047;42.600;23.470;2022-07-05T00:05:45;93268.50;;;22.79;44.73
6038;BME280;3047;42.600;23.470;2022-07-05T00:08:11;93268.13;;;22.72;45.24
6038;BME280;3047;42.600;23.470;2022-07-05T00:10:38;93265.47;;;22.74;45.04
6038;BME280;3047;42.600;23.470;2022-07-05T00:13:05;93262.97;;;22.72;44.64
6038;BME280;3047;42.600;23.470;2022-07-05T00:15:33;93235.81;;;22.44;45.51
6038;BME280;3047;42.600;23.470;2022-07-05T00:18:00;93271.63;;;22.71;45.42
6038;BME280;3047;42.600;23.470;2022-07-05T00:20:27;93256.41;;;22.68;45.33
6038;BME280;3047;42.600;23.470;2022-07-05T00:22:54;93254.44;;;22.71;45.54
6038;BME280;3047;42.600;23.470;2022-07-05T00:25:21;93247.78;;;22.69;45.45
6038;BME280;3047;42.600;23.470;2022-07-05T00:27:47;93244.81;;;22.62;45.68
6038;BME280;3047;42.600;23.470;2022-07-05T00:30:14;93213.88;;;22.51;45.38
6038;BME280;3047;42.600;23.470;2022-07-05T00:32:43;93192.13;;;22.31;45.21
6038;BME280;3047;42.600;23.470;2022-07-05T00:35:09;93237.31;;;22.59;45.34
6038;BME280;3047;42.600;23.470;2022-07-05T00:37:36;93245.84;;;22.60;45.51
6038;BME280;3047;42.600;23.470;2022-07-05T00:40:04;93173.50;;;22.16;45.61
6038;BME280;3047;42.600;23.470;2022-07-05T00:42:33;93233.78;;;22.49;46.33
6038;BME280;3047;42.600;23.470;2022-07-05T00:44:59;93236.34;;;22.49;45.69
6038;BME280;3047;42.600;23.470;2022-07-05T00:47:28;93228.44;;;22.39;45.80
6038;BME280;3047;42.600;23.470;2022-07-05T00:49:57;93237.31;;;22.35;46.01
6038;BME280;3047;42.600;23.470;2022-07-05T00:52:23;93241.03;;;22.31;47.25
6038;BME280;3047;42.600;23.470;2022-07-05T00:54:50;93245.75;;;22.37;46.35
6038;BME280;3047;42.600;23.470;2022-07-05T00:57:19;93236.13;;;22.28;46.32
6038;BME280;3047;42.600;23.470;2022-07-05T00:59:47;93246.09;;;22.33;47.09
6038;BME280;3047;42.600;23.470;2022-07-05T01:02:13;93239.19;;;22.33;47.97
6038;BME280;3047;42.600;23.470;2022-07-05T01:04:40;93241.50;;;22.49;47.00
6038;BME280;3047;42.600;23.470;2022-07-05T01:07:08;93234.84;;;22.34;47.60
6038;BME280;3047;42.600;23.470;2022-07-05T01:09:35;93235.81;;;22.33;48.99
6038;BME280;3047;42.600;23.470;2022-07-05T01:12:02;93209.91;;;22.10;49.25
6038;BME280;3047;42.600;23.470;2022-07-05T01:14:29;93250.16;;;22.24;48.54
6038;BME280;3047;42.600;23.470;2022-07-05T01:16:56;93250.69;;;22.16;48.96
6038;BME280;3047;42.600;23.470;2022-07-05T01:19:24;93250.56;;;22.18;51.78
6038;BME280;3047;42.600;23.470;2022-07-05T01:21:51;93250.25;;;22.23;50.49
6038;BME280;3047;42.600;23.470;2022-07-05T01:24:19;93251.44;;;22.30;53.81
6038;BME280;3047;42.600;23.470;2022-07-05T01:26:50;93226.50;;;22.06;55.23
6038;BME280;3047;42.600;23.470;2022-07-05T01:29:19;93259.22;;;22.17;55.26
6038;BME280;3047;42.600;23.470;2022-07-05T01:31:46;93223.47;;;21.88;55.13
6038;BME280;3047;42.600;23.470;2022-07-05T01:34:13;93252.38;;;21.92;54.47
6038;BME280;3047;42.600;23.470;2022-07-05T01:36:39;93257.94;;;21.86;53.27
6038;BME280;3047;42.600;23.470;2022-07-05T01:39:07;93237.94;;;21.53;53.52
6038;BME280;3047;42.600;23.470;2022-07-05T01:41:36;93261.78;;;21.67;52.65
6038;BME280;3047;42.600;23.470;2022-07-05T01:44:03;93272.47;;;21.61;54.07
6038;BME280;3047;42.600;23.470;2022-07-05T01:46:31;93260.03;;;21.42;53.14
6038;BME280;3047;42.600;23.470;2022-07-05T01:49:04;93258.19;;;21.32;53.46
6038;BME280;3047;42.600;23.470;2022-07-05T01:51:34;93234.75;;;21.23;54.68
6038;BME280;3047;42.600;23.470;2022-07-05T01:54:04;93238.66;;;21.16;53.84
6038;BME280;3047;42.600;23.470;2022-07-05T01:56:31;93249.22;;;21.24;55.03
6038;BME280;3047;42.600;23.470;2022-07-05T01:58:59;93223.63;;;20.97;53.90
6038;BME280;3047;42.600;23.470;2022-07-05T02:01:33;93257.97;;;21.22;57.55
6038;BME280;3047;42.600;23.470;2022-07-05T02:04:01;93258.50;;;21.27;58.03
6038;BME280;3047;42.600;23.470;2022-07-05T02:06:30;93258.06;;;21.20;57.52
6038;BME280;3047;42.600;23.470;2022-07-05T02:08:57;93246.16;;;21.07;58.70
6038;BME280;3047;42.600;23.470;2022-07-05T02:11:24;93255.31;;;21.11;57.52
6038;BME280;3047;42.600;23.470;2022-07-05T02:13:51;93260.00;;;21.04;54.33
6038;BME280;3047;42.600;23.470;2022-07-05T02:16:22;93253.63;;;20.97;55.04
6038;BME280;3047;42.600;23.470;2022-07-05T02:18:48;93252.00;;;20.96;56.13
6038;BME280;3047;42.600;23.470;2022-07-05T02:21:15;93255.38;;;20.96;56.90
6038;BME280;3047;42.600;23.470;2022-07-05T02:23:42;93256.41;;;20.94;55.40
6038;BME280;3047;42.600;23.470;2022-07-05T02:26:09;93240.91;;;20.95;55.22
6038;BME280;3047;42.600;23.470;2022-07-05T02:28:35;93200.06;;;20.65;57.62
6038;BME280;3047;42.600;23.470;2022-07-05T02:31:02;93249.63;;;20.93;57.36
6038;BME280;3047;42.600;23.470;2022-07-05T02:33:30;93247.84;;;20.81;57.37
6038;BME280;3047;42.600;23.470;2022-07-05T02:35:57;93257.50;;;20.77;58.97
6038;BME280;3047;42.600;23.470;2022-07-05T02:38:24;93221.53;;;20.52;57.97
6038;BME280;3047;42.600;23.470;2022-07-05T02:40:50;93262.13;;;20.72;59.00
6038;BME280;3047;42.600;23.470;2022-07-05T02:43:17;93264.78;;;20.70;59.44
6038;BME280;3047;42.600;23.470;2022-07-05T02:45:44;93261.06;;;20.62;57.79
6038;BME280;3047;42.600;23.470;2022-07-05T02:48:14;93252.97;;;20.41;57.98
6038;BME280;3047;42.600;23.470;2022-07-05T02:50:42;93226.06;;;20.07;58.13
6038;BME280;3047;42.600;23.470;2022-07-05T02:53:09;93255.66;;;20.25;58.38
6038;BME280;3047;42.600;23.470;2022-07-05T02:55:35;93228.53;;;20.08;58.35
6038;BME280;3047;42.600;23.470;2022-07-05T02:58:02;93253.06;;;20.39;58.26
6038;BME280;3047;42.600;23.470;2022-07-05T03:00:29;93254.38;;;20.32;57.29
6038;BME280;3047;42.600;23.470;2022-07-05T03:02:56;93220.19;;;20.05;59.05
6038;BME280;3047;42.600;23.470;2022-07-05T03:05:23;93273.97;;;20.33;57.88
6038;BME280;3047;42.600;23.470;2022-07-05T03:07:51;93284.03;;;20.36;57.53
6038;BME280;3047;42.600;23.470;2022-07-05T03:10:17;93209.56;;;19.84;57.52
6038;BME280;3047;42.600;23.470;2022-07-05T03:12:44;93277.47;;;20.32;57.58
6038;BME280;3047;42.600;23.470;2022-07-05T03:15:11;93273.44;;;20.28;58.62
6038;BME280;3047;42.600;23.470;2022-07-05T03:17:38;93273.78;;;20.36;57.12
6038;BME280;3047;42.600;23.470;2022-07-05T03:20:05;93268.75;;;20.35;57.54
6038;BME280;3047;42.600;23.470;2022-07-05T03:22:32;93256.56;;;20.38;58.71
6038;BME280;3047;42.600;23.470;2022-07-05T03:25:00;93257.91;;;20.44;58.83
6038;BME280;3047;42.600;23.470;2022-07-05T03:27:28;93257.56;;;20.50;58.43
6038;BME280;3047;42.600;23.470;2022-07-05T03:29:54;93191.63;;;20.11;58.01
6038;BME280;3047;42.600;23.470;2022-07-05T03:32:21;93258.72;;;20.44;59.02
6038;BME280;3047;42.600;23.470;2022-07-05T03:34:48;93256.53;;;20.53;59.40
6038;BME280;3047;42.600;23.470;2022-07-05T03:37:15;93259.47;;;20.46;58.88
6038;BME280;3047;42.600;23.470;2022-07-05T03:39:41;93261.16;;;20.60;59.64
6038;BME280;3047;42.600;23.470;2022-07-05T03:42:09;93256.47;;;20.67;61.11
6038;BME280;3047;42.600;23.470;2022-07-05T03:44:36;93262.63;;;20.77;63.04
6038;BME280;3047;42.600;23.470;2022-07-05T03:47:03;93264.72;;;20.85;66.04
6038;BME280;3047;42.600;23.470;2022-07-05T03:49:30;93270.97;;;20.93;67.23
6038;BME280;3047;42.600;23.470;2022-07-05T03:51:57;93265.66;;;20.96;67.95
6038;BME280;3047;42.600;23.470;2022-07-05T03:54:24;93264.50;;;20.88;65.50
6038;BME280;3047;42.600;23.470;2022-07-05T03:56:50;93261.13;;;20.87;64.16
6038;BME280;3047;42.600;23.470;2022-07-05T03:59:18;93240.78;;;20.84;65.71
6038;BME280;3047;42.600;23.470;2022-07-05T04:01:45;93238.72;;;20.89;67.51
6038;BME280;3047;42.600;23.470;2022-07-05T04:04:12;93253.22;;;20.90;66.72
6038;BME280;3047;42.600;23.470;2022-07-05T04:06:38;93248.19;;;20.89;66.26
6038;BME280;3047;42.600;23.470;2022-07-05T04:09:05;93242.84;;;20.92;66.07
6038;BME280;3047;42.600;23.470;2022-07-05T04:11:32;93209.34;;;20.81;66.74
6038;BME280;3047;42.600;23.470;2022-07-05T04:13:58;93240.28;;;21.05;67.20
6038;BME280;3047;42.600;23.470;2022-07-05T04:16:27;93211.09;;;20.93;67.34
6038;BME280;3047;42.600;23.470;2022-07-05T04:18:53;93252.44;;;21.15;68.38
6038;BME280;3047;42.600;23.470;2022-07-05T04:21:20;93250.88;;;21.26;72.44
6038;BME280;3047;42.600;23.470;2022-07-05T04:23:47;93251.22;;;21.34;75.08
6038;BME280;3047;42.600;23.470;2022-07-05T04:26:13;93254.69;;;21.45;66.20
6038;BME280;3047;42.600;23.470;2022-07-05T04:28:40;93258.72;;;21.50;68.66
6038;BME280;3047;42.600;23.470;2022-07-05T04:31:07;93199.63;;;21.11;69.56
6038;BME280;3047;42.600;23.470;2022-07-05T04:33:35;93253.69;;;21.48;71.89
6038;BME280;3047;42.600;23.470;2022-07-05T04:36:03;93208.31;;;21.21;73.33
6038;BME280;3047;42.600;23.470;2022-07-05T04:38:30;93210.00;;;21.35;69.95
6038;BME280;3047;42.600;23.470;2022-07-05T04:40:57;93254.38;;;21.76;72.21
6038;BME280;3047;42.600;23.470;2022-07-05T04:43:23;93256.94;;;21.76;73.61
6038;BME280;3047;42.600;23.470;2022-07-05T04:45:50;93253.44;;;21.77;73.91
6038;BME280;3047;42.600;23.470;2022-07-05T04:48:17;93223.44;;;21.64;70.56
6038;BME280;3047;42.600;23.470;2022-07-05T04:50:45;93255.00;;;22.03;69.03
6038;BME280;3047;42.600;23.470;2022-07-05T04:53:11;93255.72;;;22.05;69.26
6038;BME280;3047;42.600;23.470;2022-07-05T04:55:38;93261.88;;;22.15;71.59
6038;BME280;3047;42.600;23.470;2022-07-05T04:58:05;93246.75;;;22.11;70.49
6038;BME280;3047;42.600;23.470;2022-07-05T05:00:32;93260.75;;;22.19;68.93
6038;BME280;3047;42.600;23.470;2022-07-05T05:02:59;93265.88;;;22.32;71.51
6038;BME280;3047;42.600;23.470;2022-07-05T05:05:25;93260.06;;;22.41;71.37
6038;BME280;3047;42.600;23.470;2022-07-05T05:07:53;93264.19;;;22.55;65.34
6038;BME280;3047;42.600;23.470;2022-07-05T05:10:20;93266.56;;;22.58;68.99
6038;BME280;3047;42.600;23.470;2022-07-05T05:12:47;93270.22;;;22.67;62.63
6038;BME280;3047;42.600;23.470;2022-07-05T05:15:13;93259.91;;;22.67;64.05
6038;BME280;3047;42.600;23.470;2022-07-05T05:17:42;93240.09;;;22.56;65.18
6038;BME280;3047;42.600;23.470;2022-07-05T05:20:11;93267.78;;;22.77;65.77
6038;BME280;3047;42.600;23.470;2022-07-05T05:22:38;93241.91;;;22.67;62.60
6038;BME280;3047;42.600;23.470;2022-07-05T05:25:08;93230.66;;;22.68;61.09
6038;BME280;3047;42.600;23.470;2022-07-05T05:27:35;93246.97;;;22.80;64.29
6038;BME280;3047;42.600;23.470;2022-07-05T05:30:02;93048.63;;;21.64;63.71
6038;BME280;3047;42.600;23.470;2022-07-05T05:32:29;93262.41;;;23.04;62.53
6038;BME280;3047;42.600;23.470;2022-07-05T05:34:55;93237.88;;;22.87;62.67
6038;BME280;3047;42.600;23.470;2022-07-05T05:37:22;93253.53;;;23.08;62.96
6038;BME280;3047;42.600;23.470;2022-07-05T05:39:49;93260.00;;;23.13;64.47
6038;BME280;3047;42.600;23.470;2022-07-05T05:42:17;93252.34;;;23.12;65.51
6038;BME280;3047;42.600;23.470;2022-07-05T05:44:44;93264.91;;;23.28;65.27
6038;BME280;3047;42.600;23.470;2022-07-05T05:47:10;93250.84;;;23.20;63.75
6038;BME280;3047;42.600;23.470;2022-07-05T05:49:37;93274.06;;;23.32;64.45
6038;BME280;3047;42.600;23.470;2022-07-05T05:52:04;93233.28;;;23.14;65.82
6038;BME280;3047;42.600;23.470;2022-07-05T05:54:31;93275.03;;;23.42;65.29
6038;BME280;3047;42.600;23.470;2022-07-05T05:56:57;93275.59;;;23.45;64.69
6038;BME280;3047;42.600;23.470;2022-07-05T05:59:25;93221.44;;;23.12;62.63
6038;BME280;3047;42.600;23.470;2022-07-05T06:01:52;93283.25;;;23.58;64.06
6038;BME280;3047;42.600;23.470;2022-07-05T06:04:19;93280.69;;;23.69;64.64
6038;BME280;3047;42.600;23.470;2022-07-05T06:06:45;93278.94;;;23.70;64.09
6038;BME280;3047;42.600;23.470;2022-07-05T06:09:12;93279.88;;;23.91;62.36
6038;BME280;3047;42.600;23.470;2022-07-05T06:11:39;93294.63;;;23.89;63.82
6038;BME280;3047;42.600;23.470;2022-07-05T06:14:06;93283.03;;;23.95;66.06
6038;BME280;3047;42.600;23.470;2022-07-05T06:16:34;93274.34;;;23.96;65.71
6038;BME280;3047;42.600;23.470;2022-07-05T06:19:00;93280.94;;;24.00;63.42
6038;BME280;3047;42.600;23.470;2022-07-05T06:21:27;93278.56;;;24.08;62.20
6038;BME280;3047;42.600;23.470;2022-07-05T06:23:54;93254.88;;;24.03;61.49
6038;BME280;3047;42.600;23.470;2022-07-05T06:26:21;93280.78;;;24.13;62.64
6038;BME280;3047;42.600;23.470;2022-07-05T06:28:47;93251.94;;;24.08;62.23
6038;BME280;3047;42.600;23.470;2022-07-05T06:31:15;93268.44;;;24.28;61.38
6038;BME280;3047;42.600;23.470;2022-07-05T06:33:43;93282.53;;;24.35;62.26
6038;BME280;3047;42.600;23.470;2022-07-05T06:36:10;93283.59;;;24.44;60.93
6038;BME280;3047;42.600;23.470;2022-07-05T06:38:36;93282.28;;;24.38;63.87
6038;BME280;3047;42.600;23.470;2022-07-05T06:41:08;93266.44;;;24.31;65.15
6038;BME280;3047;42.600;23.470;2022-07-05T06:43:35;93262.34;;;24.29;60.72
6038;BME280;3047;42.600;23.470;2022-07-05T06:46:07;93279.09;;;24.46;60.11
6038;BME280;3047;42.600;23.470;2022-07-05T06:48:34;93262.44;;;24.38;60.73
6038;BME280;3047;42.600;23.470;2022-07-05T06:51:03;93287.16;;;24.63;61.12
6038;BME280;3047;42.600;23.470;2022-07-05T06:53:29;93237.69;;;24.36;64.05
6038;BME280;3047;42.600;23.470;2022-07-05T06:55:56;93206.28;;;24.20;62.59
6038;BME280;3047;42.600;23.470;2022-07-05T06:58:23;93278.63;;;24.84;67.03
6038;BME280;3047;42.600;23.470;2022-07-05T07:00:50;93278.38;;;24.87;64.59
6038;BME280;3047;42.600;23.470;2022-07-05T07:03:17;93269.56;;;24.89;61.14
6038;BME280;3047;42.600;23.470;2022-07-05T07:05:43;93273.66;;;24.92;61.40
6038;BME280;3047;42.600;23.470;2022-07-05T07:08:11;93277.13;;;25.02;61.22
6038;BME280;3047;42.600;23.470;2022-07-05T07:10:55;93270.66;;;25.08;61.32
6038;BME280;3047;42.600;23.470;2022-07-05T07:13:22;93189.88;;;24.74;61.40
6038;BME280;3047;42.600;23.470;2022-07-05T07:15:49;93242.44;;;25.16;61.17
6038;BME280;3047;42.600;23.470;2022-07-05T07:18:16;93268.28;;;25.37;60.88
6038;BME280;3047;42.600;23.470;2022-07-05T07:20:42;93031.78;;;24.07;62.36
6038;BME280;3047;42.600;23.470;2022-07-05T07:23:09;93261.63;;;25.65;60.60
6038;BME280;3047;42.600;23.470;2022-07-05T07:25:37;93268.56;;;25.64;59.71
6038;BME280;3047;42.600;23.470;2022-07-05T07:28:04;93260.03;;;25.74;60.90
6038;BME280;3047;42.600;23.470;2022-07-05T07:30:31;93265.25;;;25.83;59.54
6038;BME280;3047;42.600;23.470;2022-07-05T07:32:58;93264.09;;;25.97;62.60
6038;BME280;3047;42.600;23.470;2022-07-05T07:35:25;93265.63;;;26.09;60.95
6038;BME280;3047;42.600;23.470;2022-07-05T07:37:51;93269.75;;;26.22;61.13
6038;BME280;3047;42.600;23.470;2022-07-05T07:40:18;93267.72;;;26.35;58.95
6038;BME280;3047;42.600;23.470;2022-07-05T07:42:46;93204.31;;;26.10;63.36
6038;BME280;3047;42.600;23.470;2022-07-05T07:45:13;93272.97;;;26.74;62.46
6038;BME280;3047;42.600;23.470;2022-07-05T07:47:40;93278.16;;;26.93;61.08
6038;BME280;3047;42.600;23.470;2022-07-05T07:50:07;93267.81;;;26.93;58.67
6038;BME280;3047;42.600;23.470;2022-07-05T07:52:33;93276.53;;;27.02;60.56
6038;BME280;3047;42.600;23.470;2022-07-05T07:55:02;93264.69;;;26.99;56.70
6038;BME280;3047;42.600;23.470;2022-07-05T07:57:29;93271.38;;;27.31;58.50
6038;BME280;3047;42.600;23.470;2022-07-05T07:59:57;93234.94;;;27.23;58.02
6038;BME280;3047;42.600;23.470;2022-07-05T08:02:24;93285.19;;;27.78;55.00
6038;BME280;3047;42.600;23.470;2022-07-05T08:04:51;93264.84;;;27.83;55.11
6038;BME280;3047;42.600;23.470;2022-07-05T08:07:18;93283.00;;;28.11;55.61
6038;BME280;3047;42.600;23.470;2022-07-05T08:09:46;93281.44;;;28.28;55.12
6038;BME280;3047;42.600;23.470;2022-07-05T08:12:13;93276.31;;;28.46;54.12
6038;BME280;3047;42.600;23.470;2022-07-05T08:14:40;93268.06;;;28.50;53.45
6038;BME280;3047;42.600;23.470;2022-07-05T08:17:08;93268.47;;;28.73;53.05
6038;BME280;3047;42.600;23.470;2022-07-05T08:19:35;93257.53;;;28.88;51.71
6038;BME280;3047;42.600;23.470;2022-07-05T08:22:20;93263.78;;;29.13;53.61
6038;BME280;3047;42.600;23.470;2022-07-05T08:24:47;93224.16;;;29.19;51.04
6038;BME280;3047;42.600;23.470;2022-07-05T08:27:13;93262.91;;;29.66;50.23
6038;BME280;3047;42.600;23.470;2022-07-05T08:29:40;93265.81;;;29.97;49.42
6038;BME280;3047;42.600;23.470;2022-07-05T08:32:09;93215.94;;;29.84;49.34
6038;BME280;3047;42.600;23.470;2022-07-05T08:34:36;93253.63;;;30.32;46.76
6038;BME280;3047;42.600;23.470;2022-07-05T08:37:03;93238.97;;;30.31;47.23
6038;BME280;3047;42.600;23.470;2022-07-05T08:39:31;93259.22;;;30.61;47.61
6038;BME280;3047;42.600;23.470;2022-07-05T08:41:58;93263.06;;;30.83;47.74
6038;BME280;3047;42.600;23.470;2022-07-05T08:44:28;93224.38;;;30.78;46.70
6038;BME280;3047;42.600;23.470;2022-07-05T08:47:02;93255.38;;;31.14;46.94
6038;BME280;3047;42.600;23.470;2022-07-05T08:49:31;93191.31;;;30.87;46.21
6038;BME280;3047;42.600;23.470;2022-07-05T08:51:59;93262.44;;;31.38;46.78
6038;BME280;3047;42.600;23.470;2022-07-05T08:54:30;93258.34;;;31.52;45.34
6038;BME280;3047;42.600;23.470;2022-07-05T08:56:57;93262.06;;;31.74;44.01
6038;BME280;3047;42.600;23.470;2022-07-05T08:59:24;93259.13;;;31.77;42.97
6038;BME280;3047;42.600;23.470;2022-07-05T09:01:51;93259.13;;;31.85;43.48
6038;BME280;3047;42.600;23.470;2022-07-05T09:04:19;93255.53;;;31.86;42.42
6038;BME280;3047;42.600;23.470;2022-07-05T09:06:50;93257.94;;;31.88;41.41
6038;BME280;3047;42.600;23.470;2022-07-05T09:09:22;93253.06;;;31.93;41.91
6038;BME280;3047;42.600;23.470;2022-07-05T09:11:50;93255.63;;;32.09;44.59
6038;BME280;3047;42.600;23.470;2022-07-05T09:14:21;93238.28;;;32.08;41.01
6038;BME280;3047;42.600;23.470;2022-07-05T09:16:49;93253.91;;;32.24;42.32
6038;BME280;3047;42.600;23.470;2022-07-05T09:19:15;93241.94;;;32.38;41.17
6038;BME280;3047;42.600;23.470;2022-07-05T09:21:43;93232.78;;;32.34;40.13
6038;BME280;3047;42.600;23.470;2022-07-05T09:24:12;93204.13;;;32.18;40.92
6038;BME280;3047;42.600;23.470;2022-07-05T09:26:43;93231.94;;;32.50;40.49
6038;BME280;3047;42.600;23.470;2022-07-05T09:29:11;93221.56;;;32.57;40.75
6038;BME280;3047;42.600;23.470;2022-07-05T09:31:39;93220.66;;;32.72;42.29
6038;BME280;3047;42.600;23.470;2022-07-05T09:34:07;93202.19;;;32.74;42.46
6038;BME280;3047;42.600;23.470;2022-07-05T09:36:50;93231.06;;;32.81;39.23
6038;BME280;3047;42.600;23.470;2022-07-05T09:39:34;93221.03;;;32.92;40.35
6038;BME280;3047;42.600;23.470;2022-07-05T09:42:16;93223.34;;;32.87;38.74
6038;BME280;3047;42.600;23.470;2022-07-05T09:44:48;93221.31;;;32.97;40.41
6038;BME280;3047;42.600;23.470;2022-07-05T09:47:16;93021.31;;;31.62;38.68
6038;BME280;3047;42.600;23.470;2022-07-05T09:49:44;93216.50;;;32.86;39.01
6038;BME280;3047;42.600;23.470;2022-07-05T09:52:12;93207.63;;;32.87;38.68
6038;BME280;3047;42.600;23.470;2022-07-05T09:55:05;93156.13;;;32.65;39.29
6038;BME280;3047;42.600;23.470;2022-07-05T09:57:33;93205.56;;;33.06;38.36
6038;BME280;3047;42.600;23.470;2022-07-05T10:00:08;93207.47;;;33.12;38.64
6038;BME280;3047;42.600;23.470;2022-07-05T10:02:42;93185.59;;;33.05;39.00
6038;BME280;3047;42.600;23.470;2022-07-05T10:05:10;93192.03;;;33.02;41.42
6038;BME280;3047;42.600;23.470;2022-07-05T10:07:41;93090.78;;;32.11;39.99
6038;BME280;3047;42.600;23.470;2022-07-05T10:10:21;93189.97;;;32.66;40.66
6038;BME280;3047;42.600;23.470;2022-07-05T10:12:49;93173.28;;;32.67;41.22
6038;BME280;3047;42.600;23.470;2022-07-05T10:15:18;93183.84;;;32.51;39.57
6038;BME280;3047;42.600;23.470;2022-07-05T10:17:46;93173.69;;;32.25;40.80
6038;BME280;3047;42.600;23.470;2022-07-05T10:20:33;92896.28;;;30.66;41.22
6038;BME280;3047;42.600;23.470;2022-07-05T10:23:02;93129.25;;;32.25;40.83
6038;BME280;3047;42.600;23.470;2022-07-05T10:25:34;93187.47;;;32.73;40.10
6038;BME280;3047;42.600;23.470;2022-07-05T10:28:03;93062.84;;;32.11;40.00
6038;BME280;3047;42.600;23.470;2022-07-05T10:30:30;93175.84;;;32.98;40.04
6038;BME280;3047;42.600;23.470;2022-07-05T10:32:58;93176.88;;;33.12;40.12
6038;BME280;3047;42.600;23.470;2022-07-05T10:35:26;93164.47;;;33.44;41.66
6038;BME280;3047;42.600;23.470;2022-07-05T10:37:53;93052.81;;;32.46;37.36
6038;BME280;3047;42.600;23.470;2022-07-05T10:40:20;93175.34;;;33.18;36.60
6038;BME280;3047;42.600;23.470;2022-07-05T10:42:50;93145.19;;;32.84;35.91
6038;BME280;3047;42.600;23.470;2022-07-05T10:45:26;93108.88;;;32.66;36.65
6038;BME280;3047;42.600;23.470;2022-07-05T10:48:12;93167.19;;;32.98;35.90
6038;BME280;3047;42.600;23.470;2022-07-05T10:50:43;93155.53;;;33.01;36.08
6038;BME280;3047;42.600;23.470;2022-07-05T10:53:10;93119.84;;;32.85;36.62
6038;BME280;3047;42.600;23.470;2022-07-05T10:55:47;93137.94;;;32.94;37.01
6038;BME280;3047;42.600;23.470;2022-07-05T10:58:33;93159.19;;;33.14;36.28
6038;BME280;3047;42.600;23.470;2022-07-05T11:01:33;93155.84;;;33.20;35.95
6038;BME280;3047;42.600;23.470;2022-07-05T11:04:18;93157.09;;;33.10;36.48
6038;BME280;3047;42.600;23.470;2022-07-05T11:06:46;93154.31;;;33.11;35.98
6038;BME280;3047;42.600;23.470;2022-07-05T11:09:17;93160.47;;;33.18;36.42
6038;BME280;3047;42.600;23.470;2022-07-05T11:11:45;93147.47;;;33.25;36.23
6038;BME280;3047;42.600;23.470;2022-07-05T11:14:35;93145.41;;;33.35;36.81
6038;BME280;3047;42.600;23.470;2022-07-05T11:17:11;93155.69;;;33.37;36.04
6038;BME280;3047;42.600;23.470;2022-07-05T11:20:03;93150.28;;;33.38;36.87
6038;BME280;3047;42.600;23.470;2022-07-05T11:22:31;93134.28;;;33.33;35.55
6038;BME280;3047;42.600;23.470;2022-07-05T11:24:59;93157.91;;;33.48;35.88
6038;BME280;3047;42.600;23.470;2022-07-05T11:27:26;93149.66;;;33.66;36.59
6038;BME280;3047;42.600;23.470;2022-07-05T11:29:55;93146.44;;;33.64;35.45
6038;BME280;3047;42.600;23.470;2022-07-05T11:32:34;93143.06;;;33.70;35.08
6038;BME280;3047;42.600;23.470;2022-07-05T11:35:12;93143.91;;;33.56;34.93
6038;BME280;3047;42.600;23.470;2022-07-05T11:37:57;93135.84;;;33.42;33.85
6038;BME280;3047;42.600;23.470;2022-07-05T11:40:32;93110.81;;;33.10;34.35
6038;BME280;3047;42.600;23.470;2022-07-05T11:42:59;93142.31;;;33.17;34.45
6038;BME280;3047;42.600;23.470;2022-07-05T11:45:30;93138.03;;;33.01;35.98
6038;BME280;3047;42.600;23.470;2022-07-05T11:47:57;93086.63;;;32.70;36.26
6038;BME280;3047;42.600;23.470;2022-07-05T11:50:29;93107.63;;;32.77;37.25
6038;BME280;3047;42.600;23.470;2022-07-05T11:52:57;93113.75;;;32.92;36.52
6038;BME280;3047;42.600;23.470;2022-07-05T11:55:25;93122.75;;;32.90;36.58
6038;BME280;3047;42.600;23.470;2022-07-05T11:57:54;93120.09;;;32.75;36.97
6038;BME280;3047;42.600;23.470;2022-07-05T12:00:30;93116.47;;;32.76;37.04
6038;BME280;3047;42.600;23.470;2022-07-05T12:02:57;93115.34;;;32.56;38.86
6038;BME280;3047;42.600;23.470;2022-07-05T12:05:29;93112.50;;;32.42;39.74
6038;BME280;3047;42.600;23.470;2022-07-05T12:07:57;93114.13;;;32.43;39.27
6038;BME280;3047;42.600;23.470;2022-07-05T12:10:24;93104.41;;;32.29;36.88
6038;BME280;3047;42.600;23.470;2022-07-05T12:13:08;93106.38;;;32.27;37.17
6038;BME280;3047;42.600;23.470;2022-07-05T12:15:39;93089.16;;;32.10;38.18
6038;BME280;3047;42.600;23.470;2022-07-05T12:18:12;92997.28;;;31.44;37.37
6038;BME280;3047;42.600;23.470;2022-07-05T12:20:42;93055.38;;;31.77;39.26
6038;BME280;3047;42.600;23.470;2022-07-05T12:23:09;93094.09;;;32.05;39.20
6038;BME280;3047;42.600;23.470;2022-07-05T12:25:36;93034.06;;;31.65;38.96
6038;BME280;3047;42.600;23.470;2022-07-05T12:28:04;93084.22;;;31.84;38.44
6038;BME280;3047;42.600;23.470;2022-07-05T12:30:35;93088.00;;;31.81;38.10
6038;BME280;3047;42.600;23.470;2022-07-05T12:33:09;93089.31;;;31.85;39.46
6038;BME280;3047;42.600;23.470;2022-07-05T12:35:39;93056.28;;;31.61;40.22
6038;BME280;3047;42.600;23.470;2022-07-05T12:38:10;93089.94;;;31.79;39.12
6038;BME280;3047;42.600;23.470;2022-07-05T12:40:44;93063.97;;;31.55;40.30
6038;BME280;3047;42.600;23.470;2022-07-05T12:46:43;92947.63;;;30.65;40.90
6038;BME280;3047;42.600;23.470;2022-07-05T12:49:22;93092.53;;;31.56;40.86
6038;BME280;3047;42.600;23.470;2022-07-05T12:51:49;93086.13;;;31.59;40.70
6038;BME280;3047;42.600;23.470;2022-07-05T12:54:20;93067.59;;;31.45;42.41
6038;BME280;3047;42.600;23.470;2022-07-05T12:57:07;93065.03;;;31.37;40.80
6038;BME280;3047;42.600;23.470;2022-07-05T13:00:00;93047.06;;;31.26;41.79
6038;BME280;3047;42.600;23.470;2022-07-05T13:02:38;93063.06;;;31.31;42.69
6038;BME280;3047;42.600;23.470;2022-07-05T13:05:18;93071.56;;;31.33;41.35
6038;BME280;3047;42.600;23.470;2022-07-05T13:08:21;92781.59;;;29.38;40.09
6038;BME280;3047;42.600;23.470;2022-07-05T13:10:53;93052.34;;;31.10;41.21
6038;BME280;3047;42.600;23.470;2022-07-05T13:17:07;93058.22;;;31.12;42.86
6038;BME280;3047;42.600;23.470;2022-07-05T13:19:49;93054.66;;;31.05;42.33
6038;BME280;3047;42.600;23.470;2022-07-05T13:22:17;93055.63;;;31.12;41.72
6038;BME280;3047;42.600;23.470;2022-07-05T13:24:45;92993.44;;;30.60;40.85
6038;BME280;3047;42.600;23.470;2022-07-05T13:27:12;93052.41;;;30.93;41.88